Time;durP1;ratioP1;P1;durP2;ratioP2;P2;SDS_P1;SDS_P2;PMS_P1;PMS_P2;Temp;Humidity;BMP_temperature;BMP_pressure;BME280_temperature;BME280_humidity;BME280_pressure;Samples;Min_cycle;Max_cycle;Signal;HPM_P1;HPM_P2
2024/03/29 00:01:29;;;;;;;2.70;1.80;;;;;;;7.25;100.00;97623.66;109485;1251;59761;-76
2024/03/29 00:03:56;;;;;;;3.10;1.90;;;;;;;7.24;100.00;97629.77;109544;1251;59804;-76
2024/03/29 00:06:22;;;;;;;3.50;2.10;;;;;;;7.22;100.00;97632.92;109515;1251;60108;-76
2024/03/29 00:08:48;;;;;;;3.40;2.40;;;;;;;7.20;100.00;97630.38;109522;1251;60019;-75
2024/03/29 00:11:15;;;;;;;2.70;2.10;;;;;;;7.19;100.00;97637.86;109475;1251;59986;-76
2024/03/29 00:13:41;;;;;;;3.50;1.90;;;;;;;7.17;100.00;97650.92;109498;1251;59819;-77
2024/03/29 00:16:07;;;;;;;3.30;2.30;;;;;;;7.16;100.00;97655.25;109534;1251;59935;-76
2024/03/29 00:18:34;;;;;;;4.20;2.50;;;;;;;7.16;100.00;97654.38;109509;1251;59828;-76
2024/03/29 00:21:00;;;;;;;4.20;2.60;;;;;;;7.17;100.00;97649.92;109519;1251;59838;-76
2024/03/29 00:23:28;;;;;;;4.10;2.70;;;;;;;7.17;100.00;97647.45;109526;1251;59856;-76
2024/03/29 00:25:58;;;;;;;2.60;2.40;;;;;;;7.16;100.00;97647.48;109279;1256;60041;-76
2024/03/29 00:28:24;;;;;;;4.10;2.80;;;;;;;7.16;100.00;97651.75;109527;1251;59945;-75
2024/03/29 00:30:50;;;;;;;4.90;3.60;;;;;;;7.14;100.00;97657.52;109542;1251;59817;-76
2024/03/29 00:33:16;;;;;;;5.50;4.10;;;;;;;7.11;100.00;97657.41;109503;1251;59863;-76
2024/03/29 00:35:43;;;;;;;7.10;5.10;;;;;;;7.08;100.00;97665.26;109510;1251;59983;-75
2024/03/29 00:38:09;;;;;;;5.80;4.90;;;;;;;7.04;100.00;97672.03;109503;1251;59756;-78
2024/03/29 00:40:36;;;;;;;5.00;4.50;;;;;;;7.01;100.00;97675.24;109489;1251;60275;-76
2024/03/29 00:43:02;;;;;;;7.40;4.60;;;;;;;6.99;100.00;97678.23;109535;1251;59809;-78
2024/03/29 00:45:29;;;;;;;5.10;4.30;;;;;;;6.96;100.00;97684.98;109521;1251;59853;-76
2024/03/29 00:47:55;;;;;;;5.50;3.90;;;;;;;6.94;100.00;97685.66;109450;1251;59794;-76
2024/03/29 00:50:22;;;;;;;5.50;3.90;;;;;;;6.92;100.00;97686.01;109465;1251;59895;-76
2024/03/29 00:52:48;;;;;;;4.50;3.60;;;;;;;6.89;100.00;97691.16;109530;1251;59865;-75
2024/03/29 00:55:14;;;;;;;3.90;2.70;;;;;;;6.87;100.00;97692.04;109501;1251;60137;-77
2024/03/29 00:57:41;;;;;;;3.80;2.80;;;;;;;6.85;100.00;97689.02;109343;1251;59909;-76
2024/03/29 01:00:10;;;;;;;2.30;2.10;;;;;;;6.84;100.00;97693.48;109483;1251;59855;-77
2024/03/29 01:02:36;;;;;;;2.90;2.10;;;;;;;6.87;100.00;97707.05;109308;1251;60023;-76
2024/03/29 01:05:03;;;;;;;2.80;1.80;;;;;;;6.88;100.00;97713.89;109536;1251;60107;-75
2024/03/29 01:07:29;;;;;;;3.00;1.60;;;;;;;6.85;100.00;97719.70;109554;1251;66944;-76
2024/03/29 01:09:56;;;;;;;2.00;1.40;;;;;;;6.81;100.00;97725.45;109524;1251;59817;-74
2024/03/29 01:12:22;;;;;;;2.80;1.50;;;;;;;6.76;100.00;97730.60;109510;1251;59836;-76
2024/03/29 01:14:49;;;;;;;1.70;1.20;;;;;;;6.70;100.00;97739.64;109569;1251;60295;-76
2024/03/29 01:17:15;;;;;;;1.80;1.20;;;;;;;6.66;100.00;97749.14;109559;1251;59878;-76
2024/03/29 01:19:41;;;;;;;2.70;1.30;;;;;;;6.61;100.00;97748.58;109544;1251;59829;-78
2024/03/29 01:22:08;;;;;;;1.80;1.30;;;;;;;6.59;100.00;97755.48;109499;1251;59831;-75
2024/03/29 01:24:34;;;;;;;2.70;1.50;;;;;;;6.57;100.00;97757.54;109467;1251;60165;-76
2024/03/29 01:27:01;;;;;;;2.60;1.20;;;;;;;6.54;100.00;97763.92;109528;1251;60153;-76
2024/03/29 01:29:27;;;;;;;2.60;1.20;;;;;;;6.51;100.00;97772.80;109336;1251;59895;-75
2024/03/29 01:31:54;;;;;;;3.20;1.40;;;;;;;6.48;100.00;97782.02;109500;1251;60120;-76
2024/03/29 01:34:20;;;;;;;3.10;1.50;;;;;;;6.46;100.00;97788.67;109578;1251;59870;-76
2024/03/29 01:36:47;;;;;;;3.20;1.50;;;;;;;6.44;100.00;97790.19;109535;1251;59880;-76
2024/03/29 01:39:15;;;;;;;2.50;1.30;;;;;;;6.42;100.00;97795.10;109478;1251;59808;-74
2024/03/29 01:41:41;;;;;;;4.00;1.40;;;;;;;6.38;100.00;97808.05;109518;1251;59752;-76
2024/03/29 01:44:08;;;;;;;3.00;1.60;;;;;;;6.33;100.00;97813.52;109269;1251;59793;-75
2024/03/29 01:46:37;;;;;;;1.80;1.20;;;;;;;6.30;100.00;97826.40;109607;1251;59958;-77
2024/03/29 01:49:06;;;;;;;1.90;1.20;;;;;;;6.28;100.00;97836.50;109484;1251;64142;-78
2024/03/29 01:51:38;;;;;;;2.10;1.40;;;;;;;6.27;100.00;97845.83;109477;1251;59761;-76
2024/03/29 01:54:11;;;;;;;5.50;1.60;;;;;;;6.27;100.00;97847.26;109604;1251;59757;-76
2024/03/29 01:56:39;;;;;;;2.40;1.00;;;;;;;6.27;100.00;97853.98;109451;1251;67027;-75
2024/03/29 01:59:13;;;;;;;2.50;1.60;;;;;;;6.27;100.00;97857.86;109337;1251;60153;-75
2024/03/29 02:01:40;;;;;;;2.80;1.30;;;;;;;6.26;100.00;97863.95;109522;1251;63862;-76
2024/03/29 02:04:08;;;;;;;2.00;1.10;;;;;;;6.23;100.00;97870.14;109483;1251;59746;-76
2024/03/29 02:06:34;;;;;;;2.80;1.40;;;;;;;6.20;100.00;97880.60;109572;1251;59849;-75
2024/03/29 02:09:00;;;;;;;3.60;1.60;;;;;;;6.17;100.00;97889.60;109538;1251;59785;-73
2024/03/29 02:11:27;;;;;;;5.00;1.30;;;;;;;6.13;100.00;97901.66;109456;1251;60273;-76
2024/03/29 02:13:53;;;;;;;3.30;1.20;;;;;;;6.11;100.00;97910.96;109532;1251;59947;-74
2024/03/29 02:16:20;;;;;;;1.60;1.20;;;;;;;6.09;100.00;97914.23;109538;1251;60025;-78
2024/03/29 02:18:46;;;;;;;2.30;1.10;;;;;;;6.10;100.00;97915.64;109528;1251;59695;-77
2024/03/29 02:21:12;;;;;;;5.60;1.30;;;;;;;6.11;100.00;97915.92;109537;1251;59881;-76
2024/03/29 02:23:44;;;;;;;1.90;1.30;;;;;;;6.10;100.00;97921.42;109529;1251;59764;-76
2024/03/29 02:26:11;;;;;;;3.00;1.30;;;;;;;6.08;100.00;97929.55;109532;1251;63929;-76
2024/03/29 02:28:38;;;;;;;2.60;1.40;;;;;;;6.04;100.00;97932.77;109499;1251;60147;-75
2024/03/29 02:31:04;;;;;;;1.10;1.00;;;;;;;6.01;100.00;97936.63;109524;1251;59779;-76
2024/03/29 02:33:31;;;;;;;1.40;1.00;;;;;;;5.98;100.00;97935.64;109562;1251;67732;-76
2024/03/29 02:35:57;;;;;;;1.50;1.20;;;;;;;5.94;100.00;97945.73;108786;1252;1002154;-76
2024/03/29 02:38:23;;;;;;;1.80;1.10;;;;;;;5.92;100.00;97946.38;108018;1251;1002296;-76
2024/03/29 02:40:49;;;;;;;1.70;1.10;;;;;;;5.90;100.00;97944.71;109531;1251;59872;-77
2024/03/29 02:43:16;;;;;;;2.30;1.30;;;;;;;5.90;100.00;97947.05;109576;1252;59805;-75
2024/03/29 02:45:43;;;;;;;1.50;1.20;;;;;;;5.89;100.00;97953.63;109575;1251;59779;-76
2024/03/29 02:48:09;;;;;;;2.30;1.00;;;;;;;5.87;100.00;97960.81;109533;1253;59825;-76
2024/03/29 02:50:36;;;;;;;1.30;1.00;;;;;;;5.84;100.00;97966.25;109538;1251;59937;-75
2024/03/29 02:53:03;;;;;;;2.90;1.20;;;;;;;5.83;100.00;97969.34;108760;1251;1002295;-76
2024/03/29 02:55:29;;;;;;;3.10;2.10;;;;;;;5.84;100.00;97970.91;109534;1251;59815;-74
2024/03/29 02:57:55;;;;;;;1.40;1.30;;;;;;;5.82;100.00;97975.91;109528;1251;59816;-76
2024/03/29 03:00:28;;;;;;;1.20;1.10;;;;;;;5.81;100.00;97980.58;109544;1251;60745;-76
2024/03/29 03:02:54;;;;;;;1.30;1.10;;;;;;;5.80;100.00;97984.33;109562;1251;64187;-74
2024/03/29 03:05:20;;;;;;;1.80;1.40;;;;;;;5.79;100.00;97988.46;109541;1251;59790;-76
2024/03/29 03:13:16;;;;;;;2.00;1.30;;;;;;;5.77;100.00;97998.08;109531;1253;60099;-78
2024/03/29 03:15:43;;;;;;;0.80;0.70;;;;;;;5.77;100.00;97999.91;109496;1251;59895;-76
2024/03/29 03:18:09;;;;;;;1.30;1.10;;;;;;;5.75;100.00;97995.42;109583;1252;59861;-74
2024/03/29 03:20:37;;;;;;;1.50;1.00;;;;;;;5.74;100.00;97994.77;109573;1251;59753;-75
2024/03/29 03:23:04;;;;;;;2.10;1.10;;;;;;;5.72;100.00;97994.52;109567;1251;67972;-76
2024/03/29 03:25:30;;;;;;;3.90;1.50;;;;;;;5.70;100.00;97994.86;109551;1253;59825;-75
2024/03/29 03:27:57;;;;;;;1.40;1.30;;;;;;;5.67;100.00;97999.45;109517;1251;59771;-77
2024/03/29 03:30:23;;;;;;;2.00;1.50;;;;;;;5.64;100.00;97997.66;109485;1253;59837;-75
2024/03/29 03:32:49;;;;;;;1.40;1.20;;;;;;;5.63;100.00;97991.93;109553;1251;59844;-75
2024/03/29 03:35:16;;;;;;;1.80;1.40;;;;;;;5.62;100.00;97984.60;109467;1251;59779;-77
2024/03/29 03:37:42;;;;;;;1.50;1.40;;;;;;;5.61;100.00;97987.49;109507;1251;59762;-76
2024/03/29 03:40:09;;;;;;;2.20;1.60;;;;;;;5.59;100.00;97987.65;109501;1251;59799;-76
2024/03/29 03:42:35;;;;;;;1.70;1.30;;;;;;;5.56;100.00;97988.86;109325;1251;60067;-76
2024/03/29 03:45:03;;;;;;;2.80;1.80;;;;;;;5.52;100.00;97989.80;109496;1253;60018;-76
2024/03/29 03:47:30;;;;;;;2.30;1.50;;;;;;;5.51;100.00;97989.02;109534;1251;68050;-77
2024/03/29 03:49:56;;;;;;;1.90;1.40;;;;;;;5.49;100.00;97989.11;109501;1251;59865;-75
2024/03/29 03:52:23;;;;;;;2.40;1.50;;;;;;;5.45;100.00;97994.25;109550;1251;59790;-76
2024/03/29 03:54:49;;;;;;;1.40;1.10;;;;;;;5.41;100.00;97998.05;109513;1251;59717;-77
2024/03/29 03:57:15;;;;;;;1.50;1.30;;;;;;;5.38;100.00;98000.00;109596;1251;60179;-76
2024/03/29 03:59:42;;;;;;;3.40;1.70;;;;;;;5.36;100.00;98002.95;109527;1253;59878;-76
2024/03/29 04:02:08;;;;;;;2.40;1.60;;;;;;;5.34;100.00;98001.36;109559;1251;60118;-76
2024/03/29 04:04:34;;;;;;;2.10;1.90;;;;;;;5.31;100.00;97999.02;109489;1251;60128;-76
2024/03/29 04:07:01;;;;;;;2.00;1.80;;;;;;;5.29;100.00;97992.63;109516;1251;59750;-76
2024/03/29 04:09:28;;;;;;;3.00;2.50;;;;;;;5.26;100.00;97992.83;109574;1251;59840;-75
2024/03/29 04:11:54;;;;;;;3.40;2.70;;;;;;;5.23;100.00;97993.19;109592;1251;59768;-76
2024/03/29 04:14:21;;;;;;;7.00;3.40;;;;;;;5.21;100.00;97992.81;109504;1251;59887;-75
2024/03/29 04:16:47;;;;;;;4.10;3.10;;;;;;;5.18;100.00;97995.39;109561;1251;59819;-76
2024/03/29 04:19:13;;;;;;;4.90;3.10;;;;;;;5.17;100.00;97998.69;109520;1251;60101;-76
2024/03/29 04:21:40;;;;;;;3.60;2.80;;;;;;;5.14;100.00;97996.75;109324;1251;60195;-76
2024/03/29 04:24:10;;;;;;;4.80;2.80;;;;;;;5.10;100.00;97995.23;109518;1251;60111;-75
2024/03/29 04:26:37;;;;;;;;;;;;;;;5.06;100.00;97993.69;108028;1251;1002412;-77
2024/03/29 04:29:03;;;;;;;3.70;3.20;;;;;;;5.01;100.00;97998.23;109532;1251;64049;-76
2024/03/29 04:31:29;;;;;;;4.20;3.60;;;;;;;4.97;100.00;98012.58;109484;1251;59750;-75
2024/03/29 04:33:56;;;;;;;5.10;4.60;;;;;;;4.92;100.00;98023.77;109561;1251;60852;-75
2024/03/29 04:36:22;;;;;;;5.50;4.90;;;;;;;4.91;100.00;98032.11;109541;1251;59791;-76
2024/03/29 04:38:50;;;;;;;5.50;4.50;;;;;;;4.92;100.00;98037.52;109544;1251;59826;-76
2024/03/29 04:41:16;;;;;;;4.90;4.40;;;;;;;4.94;100.00;98036.84;109504;1251;62507;-76
2024/03/29 04:43:43;;;;;;;4.50;4.10;;;;;;;4.99;100.00;98039.20;109548;1251;60109;-75
2024/03/29 04:46:11;;;;;;;3.90;3.60;;;;;;;5.02;100.00;98035.66;109515;1251;59865;-76
2024/03/29 04:48:40;;;;;;;4.60;3.80;;;;;;;5.16;100.00;98034.65;109531;1251;65549;-76
2024/03/29 04:51:07;;;;;;;6.20;4.10;;;;;;;5.74;100.00;98039.03;109600;1253;59793;-76
2024/03/29 04:53:38;;;;;;;4.40;4.00;;;;;;;6.24;100.00;98042.23;109480;1251;63753;-75
2024/03/29 04:56:05;;;;;;;5.20;3.80;;;;;;;6.46;100.00;98050.17;109530;1253;59949;-75
2024/03/29 04:58:32;;;;;;;4.30;3.90;;;;;;;6.71;100.00;98056.27;109550;1251;60011;-77
2024/03/29 05:00:58;;;;;;;3.70;2.70;;;;;;;7.24;100.00;98053.02;109524;1253;65384;-77
2024/03/29 05:03:25;;;;;;;2.80;2.10;;;;;;;7.78;100.00;98045.04;109491;1251;59871;-76
2024/03/29 05:05:52;;;;;;;4.00;2.20;;;;;;;8.26;100.00;98035.75;109518;1251;63786;-77
2024/03/29 05:08:21;;;;;;;3.30;2.00;;;;;;;8.67;100.00;98036.64;109510;1251;59830;-76
2024/03/29 05:10:49;;;;;;;4.70;2.20;;;;;;;9.03;100.00;98033.82;109528;1251;59709;-76
2024/03/29 05:13:19;;;;;;;2.40;1.70;;;;;;;9.34;100.00;98034.75;109545;1251;65573;-76
2024/03/29 05:15:47;;;;;;;2.60;2.00;;;;;;;9.61;100.00;98032.15;109531;1251;60101;-76
2024/03/29 05:18:14;;;;;;;2.90;1.90;;;;;;;9.90;100.00;98026.50;109565;1251;65210;-76
2024/03/29 05:20:41;;;;;;;3.20;1.90;;;;;;;10.14;100.00;98025.64;109458;1251;59748;-74
2024/03/29 05:23:07;;;;;;;2.40;1.50;;;;;;;10.28;100.00;98027.00;109514;1251;59676;-76
2024/03/29 05:25:34;;;;;;;2.10;1.50;;;;;;;10.51;100.00;98034.19;109504;1251;59871;-75
2024/03/29 05:28:00;;;;;;;3.00;1.00;;;;;;;10.76;100.00;98046.14;109512;1251;60734;-76
2024/03/29 05:30:28;;;;;;;2.80;1.60;;;;;;;10.87;100.00;98062.98;109490;1251;62952;-77
2024/03/29 05:32:55;;;;;;;3.10;1.70;;;;;;;11.01;100.00;98068.28;109501;1251;59833;-75
2024/03/29 05:35:21;;;;;;;6.40;1.60;;;;;;;11.10;100.00;98078.58;109547;1251;59823;-77
2024/03/29 05:37:51;;;;;;;2.90;2.00;;;;;;;11.17;100.00;98086.15;109477;1251;59829;-76
2024/03/29 05:40:25;;;;;;;4.00;2.10;;;;;;;11.26;100.00;98084.29;109565;1251;60003;-76
2024/03/29 05:42:52;;;;;;;3.70;2.60;;;;;;;11.38;100.00;98083.08;109522;1251;64035;-75
2024/03/29 05:45:29;;;;;;;6.60;2.00;;;;;;;11.57;100.00;98080.24;109503;1253;59736;-76
2024/03/29 05:47:58;;;;;;;3.40;1.70;;;;;;;11.91;100.00;98085.92;109485;1251;59896;-77
2024/03/29 05:50:25;;;;;;;3.30;1.70;;;;;;;12.17;100.00;98095.23;109533;1251;66171;-76
2024/03/29 05:52:52;;;;;;;2.50;1.80;;;;;;;12.20;100.00;98098.29;109552;1251;59996;-77
2024/03/29 05:55:18;;;;;;;2.50;1.60;;;;;;;12.23;100.00;98097.51;109475;1253;62485;-76
2024/03/29 05:57:45;;;;;;;2.50;2.10;;;;;;;12.28;100.00;98100.28;109517;1251;59734;-76
2024/03/29 06:00:15;;;;;;;2.40;1.90;;;;;;;12.27;100.00;98099.86;109471;1255;59866;-77
2024/03/29 06:02:44;;;;;;;3.00;2.20;;;;;;;12.33;100.00;98098.20;109493;1251;66559;-76
2024/03/29 06:05:11;;;;;;;4.20;2.60;;;;;;;12.47;100.00;98098.42;109531;1251;60209;-76
2024/03/29 06:07:37;;;;;;;3.00;2.30;;;;;;;12.43;100.00;98095.95;109548;1253;64020;-76
2024/03/29 06:10:04;;;;;;;4.30;2.40;;;;;;;12.37;100.00;98096.84;109514;1251;59828;-77
2024/03/29 06:12:35;;;;;;;6.10;2.30;;;;;;;12.37;100.00;98099.66;109501;1251;59840;-76
2024/03/29 06:17:47;;;;;;;2.50;1.80;;;;;;;12.54;100.00;98096.05;109479;1251;61181;-77
2024/03/29 06:20:13;;;;;;;3.70;2.50;;;;;;;12.66;100.00;98088.70;109526;1251;62979;-77
2024/03/29 06:22:40;;;;;;;3.20;2.10;;;;;;;12.79;100.00;98082.40;109515;1251;59807;-76
2024/03/29 06:25:07;;;;;;;2.20;1.50;;;;;;;12.90;100.00;98073.90;109503;1251;59875;-76
2024/03/29 06:27:37;;;;;;;1.40;1.00;;;;;;;12.89;100.00;98067.34;109306;1251;67053;-77
2024/03/29 06:30:05;;;;;;;1.90;1.10;;;;;;;12.81;100.00;98072.71;109463;1251;60042;-76
2024/03/29 06:32:31;;;;;;;2.30;1.20;;;;;;;12.66;100.00;98076.55;109278;1251;64279;-77
2024/03/29 06:34:58;;;;;;;1.60;1.10;;;;;;;12.49;100.00;98076.01;109485;1251;59945;-77
2024/03/29 06:37:26;;;;;;;1.40;1.30;;;;;;;12.35;100.00;98075.25;109533;1251;59661;-75
2024/03/29 06:39:55;;;;;;;1.80;1.20;;;;;;;12.20;100.00;98070.31;109538;1251;67559;-76
2024/03/29 06:42:22;;;;;;;2.80;1.50;;;;;;;12.05;100.00;98070.23;109453;1255;59906;-76
2024/03/29 06:44:48;;;;;;;1.70;1.60;;;;;;;11.92;100.00;98073.37;109481;1251;60025;-77
2024/03/29 06:47:14;;;;;;;2.50;1.50;;;;;;;11.81;100.00;98077.42;109456;1251;59967;-77
2024/03/29 06:49:41;;;;;;;2.00;1.60;;;;;;;11.73;100.00;98084.36;109333;1251;59891;-77
2024/03/29 06:52:08;;;;;;;2.90;2.00;;;;;;;11.62;100.00;98092.95;109449;1255;65652;-75
2024/03/29 06:54:34;;;;;;;2.10;1.60;;;;;;;11.52;100.00;98103.61;109481;1253;59751;-76
2024/03/29 06:57:01;;;;;;;1.50;1.30;;;;;;;11.42;100.00;98111.02;109488;1255;59790;-76
2024/03/29 06:59:28;;;;;;;2.70;1.60;;;;;;;11.36;100.00;98111.36;109449;1251;59715;-76
2024/03/29 07:01:54;;;;;;;1.50;1.30;;;;;;;11.34;100.00;98103.73;109504;1251;59942;-73
2024/03/29 07:04:23;;;;;;;2.00;1.30;;;;;;;11.33;100.00;98092.03;109466;1251;66876;-76
2024/03/29 07:06:53;;;;;;;2.60;1.30;;;;;;;11.34;100.00;98081.27;109454;1255;59810;-77
2024/03/29 07:09:20;;;;;;;;;;;;;;;11.39;100.00;98073.98;109490;1253;62995;-75
2024/03/29 07:11:51;;;;;;;2.20;1.50;;;;;;;11.41;100.00;98072.00;109493;1251;59830;-76
2024/03/29 07:14:18;;;;;;;1.60;1.50;;;;;;;11.45;100.00;98063.29;109570;1251;59875;-76
2024/03/29 07:16:45;;;;;;;1.70;1.10;;;;;;;11.52;100.00;98070.58;109442;1255;66430;-79
2024/03/29 07:19:13;;;;;;;1.90;1.20;;;;;;;11.56;100.00;98077.88;109518;1251;60276;-77
2024/03/29 07:21:40;;;;;;;3.80;1.00;;;;;;;11.58;100.00;98075.02;109470;1251;64044;-74
2024/03/29 07:24:06;;;;;;;3.40;1.20;;;;;;;11.62;100.00;98075.70;109487;1251;59776;-76
2024/03/29 07:26:33;;;;;;;1.30;0.90;;;;;;;11.69;100.00;98080.98;109524;1251;59934;-76
2024/03/29 07:29:00;;;;;;;1.10;0.80;;;;;;;11.75;100.00;98084.70;109498;1252;65313;-78
2024/03/29 07:31:27;;;;;;;1.10;0.80;;;;;;;11.79;100.00;98091.72;109530;1251;59954;-76
2024/03/29 07:33:54;;;;;;;1.60;1.30;;;;;;;11.81;100.00;98103.08;109403;1251;62587;-75
2024/03/29 07:36:23;;;;;;;1.40;0.90;;;;;;;11.86;100.00;98103.95;109439;1251;60444;-77
2024/03/29 07:38:49;;;;;;;2.60;0.80;;;;;;;11.92;100.00;98108.42;109511;1251;59752;-76
2024/03/29 07:41:16;;;;;;;2.00;0.80;;;;;;;11.97;100.00;98109.18;109490;1251;59866;-76
2024/03/29 07:43:56;;;;;;;0.50;0.50;;;;;;;12.01;100.00;98111.20;109527;1251;59746;-76
2024/03/29 07:46:23;;;;;;;1.50;0.80;;;;;;;12.10;100.00;98115.42;109473;1251;64047;-73
2024/03/29 07:48:50;;;;;;;2.60;0.80;;;;;;;12.21;100.00;98111.42;109428;1251;59936;-70
2024/03/29 07:51:18;;;;;;;2.20;0.80;;;;;;;12.31;100.00;98114.25;109530;1251;59723;-69
2024/03/29 07:53:45;;;;;;;1.70;0.60;;;;;;;12.45;100.00;98116.26;109455;1252;66637;-70
2024/03/29 07:56:11;;;;;;;1.60;0.60;;;;;;;12.61;100.00;98110.72;109536;1251;59885;-71
2024/03/29 07:58:37;;;;;;;1.80;1.00;;;;;;;12.70;100.00;98108.27;109518;1251;59866;-71
2024/03/29 08:01:03;;;;;;;1.30;1.10;;;;;;;12.84;100.00;98112.38;109421;1251;59771;-71
2024/03/29 08:03:33;;;;;;;2.00;0.80;;;;;;;13.02;100.00;98112.36;109494;1251;59838;-71
2024/03/29 08:06:04;;;;;;;1.30;0.80;;;;;;;13.16;100.00;98113.02;109487;1251;66969;-71
2024/03/29 08:08:30;;;;;;;;;;;;;;;13.24;100.00;98116.42;109502;1251;60199;-71
2024/03/29 08:10:57;;;;;;;1.80;0.80;;;;;;;13.27;100.00;98121.19;109313;1251;62744;-71
2024/03/29 08:13:25;;;;;;;2.10;1.00;;;;;;;13.33;100.00;98125.05;109461;1251;59823;-71
2024/03/29 08:15:59;;;;;;;3.70;0.90;;;;;;;13.40;94.28;98123.89;109490;1251;59684;-70
2024/03/29 08:18:29;;;;;;;2.10;1.20;;;;;;;13.42;91.18;98123.48;109517;1255;65208;-70
2024/03/29 08:20:55;;;;;;;2.00;1.30;;;;;;;13.45;90.36;98130.62;109314;1251;60299;-71
2024/03/29 08:23:22;;;;;;;2.30;1.30;;;;;;;13.52;90.71;98136.53;109436;1251;59791;-70
2024/03/29 08:25:48;;;;;;;2.70;0.90;;;;;;;13.61;87.06;98138.57;109476;1251;60138;-71
2024/03/29 08:28:15;;;;;;;1.30;1.10;;;;;;;13.69;88.10;98131.88;109505;1251;59902;-71
2024/03/29 08:30:41;;;;;;;4.10;1.50;;;;;;;13.79;86.72;98129.56;109512;1251;59907;-71
2024/03/29 08:33:08;;;;;;;1.40;0.80;;;;;;;13.87;84.37;98128.61;109533;1251;59750;-70
2024/03/29 08:35:34;;;;;;;2.10;0.90;;;;;;;13.94;79.37;98135.84;109495;1251;59852;-71
2024/03/29 08:38:01;;;;;;;1.20;0.90;;;;;;;13.99;79.64;98139.97;109462;1251;59891;-73
2024/03/29 08:40:29;;;;;;;0.50;0.40;;;;;;;14.05;77.18;98139.92;109491;1251;59871;-71
2024/03/29 08:42:55;;;;;;;1.10;0.40;;;;;;;14.06;75.12;98137.16;109489;1251;66585;-71
2024/03/29 08:45:22;;;;;;;1.60;0.60;;;;;;;14.07;74.83;98134.89;109496;1251;59949;-71
2024/03/29 08:47:49;;;;;;;1.60;0.60;;;;;;;14.10;75.10;98131.91;109492;1251;60660;-70
2024/03/29 08:50:15;;;;;;;0.90;0.70;;;;;;;14.17;75.35;98139.17;109484;1251;60304;-70
2024/03/29 08:52:42;;;;;;;1.70;0.90;;;;;;;14.17;70.03;98136.11;109530;1251;59824;-72
2024/03/29 08:55:09;;;;;;;2.10;0.90;;;;;;;14.09;69.11;98134.45;109470;1251;66929;-72
2024/03/29 08:57:35;;;;;;;1.00;0.60;;;;;;;14.07;71.15;98137.40;109579;1251;60049;-71
2024/03/29 09:00:03;;;;;;;1.30;0.50;;;;;;;14.10;70.40;98141.60;109499;1251;62888;-72
2024/03/29 09:02:29;;;;;;;1.00;0.50;;;;;;;14.12;69.04;98140.91;109472;1251;59767;-73
2024/03/29 09:04:58;;;;;;;1.40;0.50;;;;;;;14.12;70.55;98140.92;109490;1251;59930;-71
2024/03/29 09:07:24;;;;;;;2.50;0.70;;;;;;;14.18;68.78;98142.84;109492;1251;65506;-71
2024/03/29 09:09:50;;;;;;;1.20;0.40;;;;;;;14.18;68.56;98143.46;109496;1251;59997;-71
2024/03/29 09:12:18;;;;;;;2.00;0.40;;;;;;;14.21;70.35;98140.52;109444;1251;59796;-71
2024/03/29 09:14:45;;;;;;;1.20;0.60;;;;;;;14.31;68.96;98142.80;109231;1253;59760;-69
2024/03/29 09:17:12;;;;;;;1.30;0.50;;;;;;;14.41;68.79;98140.44;109279;1254;60198;-70
2024/03/29 09:19:38;;;;;;;1.10;0.50;;;;;;;14.48;68.22;98137.95;109206;1254;67065;-70
2024/03/29 09:22:05;;;;;;;0.40;0.40;;;;;;;14.52;66.53;98133.70;109109;1254;59859;-71
2024/03/29 09:24:34;;;;;;;1.00;0.60;;;;;;;14.52;65.20;98133.35;109287;1254;59988;-70
2024/03/29 09:27:01;;;;;;;2.50;0.70;;;;;;;14.52;66.21;98129.20;109122;1254;59778;-71
2024/03/29 09:29:27;;;;;;;0.60;0.50;;;;;;;14.56;64.20;98123.64;109227;1254;60082;-71
2024/03/29 09:31:53;;;;;;;1.00;0.50;;;;;;;14.54;65.22;98131.14;109249;1254;59841;-71
2024/03/29 09:34:20;;;;;;;1.70;0.50;;;;;;;14.61;65.05;98138.70;109302;1254;59810;-72
2024/03/29 09:36:46;;;;;;;0.70;0.30;;;;;;;14.67;64.38;98138.26;109232;1254;59832;-71
2024/03/29 09:39:12;;;;;;;1.30;0.50;;;;;;;14.74;64.45;98145.89;109265;1254;59756;-72
2024/03/29 09:41:44;;;;;;;1.70;0.60;;;;;;;14.79;62.71;98142.36;109252;1254;59918;-71
2024/03/29 09:44:11;;;;;;;0.60;0.50;;;;;;;14.82;62.55;98151.30;109199;1254;66871;-71
2024/03/29 09:46:39;;;;;;;0.60;0.40;;;;;;;14.85;61.24;98151.17;109471;1251;60498;-71
2024/03/29 09:49:06;;;;;;;0.80;0.30;;;;;;;14.90;61.86;98145.18;109505;1251;62868;-71
2024/03/29 09:51:34;;;;;;;1.10;0.50;;;;;;;14.99;62.52;98135.52;109422;1251;60119;-71
2024/03/29 09:54:03;;;;;;;2.10;0.50;;;;;;;15.12;63.12;98140.11;109478;1251;60396;-71
2024/03/29 09:56:30;;;;;;;1.60;0.70;;;;;;;15.23;62.33;98144.92;109482;1251;66633;-71
2024/03/29 09:58:57;;;;;;;0.40;0.30;;;;;;;15.27;60.33;98144.33;109474;1251;59994;-72
2024/03/29 10:01:24;;;;;;;0.90;0.40;;;;;;;15.30;60.97;98138.69;109515;1251;63936;-70
2024/03/29 10:03:52;;;;;;;0.70;0.40;;;;;;;15.34;59.89;98141.16;109359;1251;159447;-71
2024/03/29 10:06:21;;;;;;;1.40;0.40;;;;;;;15.36;59.39;98140.55;109493;1251;59686;-71
2024/03/29 10:08:48;;;;;;;0.60;0.30;;;;;;;15.42;59.25;98141.77;109453;1251;66567;-70
2024/03/29 10:11:19;;;;;;;0.40;0.30;;;;;;;15.49;58.76;98137.33;109548;1251;59797;-71
2024/03/29 10:13:45;;;;;;;3.90;0.60;;;;;;;15.54;59.29;98141.64;109492;1251;63763;-72
2024/03/29 10:16:12;;;;;;;1.80;0.40;;;;;;;15.68;59.86;98142.64;109454;1251;59750;-71
2024/03/29 10:18:43;;;;;;;1.10;0.30;;;;;;;15.80;60.32;98139.75;109533;1250;60127;-71
2024/03/29 10:21:09;;;;;;;2.70;0.50;;;;;;;15.93;61.23;98133.77;109498;1251;66938;-72
2024/03/29 10:23:36;;;;;;;0.80;0.50;;;;;;;16.05;60.41;98127.70;109511;1251;59796;-73
2024/03/29 10:26:03;;;;;;;1.60;0.50;;;;;;;16.10;59.44;98127.36;109468;1251;60629;-71
2024/03/29 10:28:34;;;;;;;1.20;0.40;;;;;;;16.16;59.88;98125.69;109504;1251;60024;-73
2024/03/29 10:31:05;;;;;;;0.60;0.40;;;;;;;16.21;58.80;98128.60;109486;1251;59695;-73
2024/03/29 10:33:32;;;;;;;0.70;0.30;;;;;;;16.24;59.08;98126.50;109494;1251;65730;-70
2024/03/29 10:36:00;;;;;;;0.50;0.40;;;;;;;16.30;57.43;98126.96;109513;1251;60120;-72
2024/03/29 10:38:27;;;;;;;0.50;0.30;;;;;;;16.33;57.99;98115.80;109485;1251;63842;-71
2024/03/29 10:40:53;;;;;;;1.60;0.60;;;;;;;16.38;55.70;98111.58;109489;1251;59787;-71
2024/03/29 10:43:21;;;;;;;1.40;0.50;;;;;;;16.39;55.11;98106.61;109479;1251;59894;-71
2024/03/29 10:45:48;;;;;;;0.90;0.50;;;;;;;16.43;54.80;98108.71;109458;1251;66948;-71
2024/03/29 10:48:15;;;;;;;0.80;0.30;;;;;;;16.47;53.80;98109.19;109510;1251;59837;-72
2024/03/29 10:50:43;;;;;;;0.90;0.50;;;;;;;16.48;54.24;98099.52;109497;1251;62536;-71
2024/03/29 10:53:13;;;;;;;0.50;0.40;;;;;;;16.56;53.77;98095.77;109459;1251;59754;-71
2024/03/29 10:55:39;;;;;;;0.60;0.30;;;;;;;16.64;52.85;98085.68;109472;1251;59762;-70
2024/03/29 10:58:05;;;;;;;0.20;0.20;;;;;;;16.63;51.10;98078.73;109480;1251;59858;-71
2024/03/29 11:00:38;;;;;;;1.20;0.50;;;;;;;16.65;52.03;98074.12;109456;1251;59853;-71
2024/03/29 11:03:12;;;;;;;0.60;0.50;;;;;;;16.76;52.52;98067.71;109333;1251;63760;-71
2024/03/29 11:05:46;;;;;;;0.40;0.30;;;;;;;16.91;51.45;98059.51;109466;1251;59851;-70
2024/03/29 11:08:19;;;;;;;1.00;0.60;;;;;;;16.98;49.70;98056.26;109512;1251;59951;-72
2024/03/29 11:10:49;;;;;;;1.40;0.40;;;;;;;16.94;49.18;98050.73;109518;1251;66859;-71
2024/03/29 11:13:22;;;;;;;1.30;0.30;;;;;;;16.99;49.51;98050.23;109502;1251;60048;-72
2024/03/29 11:15:49;;;;;;;0.80;0.30;;;;;;;16.99;45.90;98045.34;109496;1251;62923;-71
2024/03/29 11:18:19;;;;;;;0.60;0.50;;;;;;;17.01;47.68;98047.61;109434;1251;59672;-71
2024/03/29 11:20:50;;;;;;;;;;;;;;;17.10;46.70;98045.91;109520;1251;59846;-71
2024/03/29 11:23:19;;;;;;;1.00;0.40;;;;;;;17.14;47.44;98034.60;109467;1251;65332;-71
2024/03/29 11:25:48;;;;;;;0.80;0.50;;;;;;;17.22;48.04;98026.52;109487;1251;61395;-72
2024/03/29 11:28:23;;;;;;;1.40;0.40;;;;;;;17.33;48.47;98033.35;109499;1251;64074;-71
2024/03/29 11:30:52;;;;;;;1.00;0.50;;;;;;;17.42;48.34;98036.30;109490;1251;59782;-71
2024/03/29 11:33:25;;;;;;;0.80;0.50;;;;;;;17.50;48.06;98029.13;109504;1251;59882;-71